sensor_id;sensor_type;location;lat;lon;timestamp;temperature;humidity
35523;DHT22;61478;50.820;4.330;2023-05-10T00:02:17;13.60;99.90
35523;DHT22;61478;50.820;4.330;2023-05-10T00:04:43;13.60;99.90
35523;DHT22;61478;50.820;4.330;2023-05-10T00:07:09;13.60;99.90
35523;DHT22;61478;50.820;4.330;2023-05-10T00:09:35;13.40;99.90
35523;DHT22;61478;50.820;4.330;2023-05-10T00:12:01;13.50;99.90
35523;DHT22;61478;50.820;4.330;2023-05-10T00:14:27;13.50;99.90
35523;DHT22;61478;50.820;4.330;2023-05-10T00:16:53;13.50;99.90
35523;DHT22;61478;50.820;4.330;2023-05-10T00:19:19;13.60;99.90
35523;DHT22;61478;50.820;4.330;2023-05-10T00:21:45;13.60;99.90
35523;DHT22;61478;50.820;4.330;2023-05-10T00:24:11;13.60;99.90
35523;DHT22;61478;50.820;4.330;2023-05-10T00:26:37;13.60;99.90
35523;DHT22;61478;50.820;4.330;2023-05-10T00:29:03;13.50;99.90
35523;DHT22;61478;50.820;4.330;2023-05-10T00:31:29;13.60;99.90
35523;DHT22;61478;50.820;4.330;2023-05-10T00:33:55;13.60;99.90
35523;DHT22;61478;50.820;4.330;2023-05-10T00:36:21;13.60;99.90
35523;DHT22;61478;50.820;4.330;2023-05-10T00:38:47;13.50;99.90
35523;DHT22;61478;50.820;4.330;2023-05-10T00:41:13;13.50;99.90
35523;DHT22;61478;50.820;4.330;2023-05-10T00:43:41;13.60;99.90
35523;DHT22;61478;50.820;4.330;2023-05-10T00:46:07;13.60;99.90
35523;DHT22;61478;50.820;4.330;2023-05-10T00:48:33;13.50;99.90
35523;DHT22;61478;50.820;4.330;2023-05-10T00:51:01;13.50;99.90
35523;DHT22;61478;50.820;4.330;2023-05-10T00:53:27;13.50;99.90
35523;DHT22;61478;50.820;4.330;2023-05-10T00:55:53;13.60;99.90
35523;DHT22;61478;50.820;4.330;2023-05-10T00:58:20;13.60;99.90
35523;DHT22;61478;50.820;4.330;2023-05-10T01:00:46;13.60;99.90
35523;DHT22;61478;50.820;4.330;2023-05-10T01:03:14;13.60;99.90
35523;DHT22;61478;50.820;4.330;2023-05-10T01:05:40;13.60;99.90
35523;DHT22;61478;50.820;4.330;2023-05-10T01:08:06;13.70;99.90
35523;DHT22;61478;50.820;4.330;2023-05-10T01:10:34;13.60;99.90
35523;DHT22;61478;50.820;4.330;2023-05-10T01:13:00;13.70;99.90
35523;DHT22;61478;50.820;4.330;2023-05-10T01:15:26;13.60;99.90
35523;DHT22;61478;50.820;4.330;2023-05-10T01:17:53;13.60;99.90
35523;DHT22;61478;50.820;4.330;2023-05-10T01:20:19;13.60;99.90
35523;DHT22;61478;50.820;4.330;2023-05-10T01:23:16;13.60;99.90
35523;DHT22;61478;50.820;4.330;2023-05-10T01:34:27;13.50;99.90
35523;DHT22;61478;50.820;4.330;2023-05-10T01:39:28;13.50;99.90
35523;DHT22;61478;50.820;4.330;2023-05-10T01:42:08;13.40;99.90
35523;DHT22;61478;50.820;4.330;2023-05-10T01:47:42;13.40;99.90
35523;DHT22;61478;50.820;4.330;2023-05-10T01:50:25;13.50;99.90
35523;DHT22;61478;50.820;4.330;2023-05-10T01:52:56;13.50;99.90
35523;DHT22;61478;50.820;4.330;2023-05-10T01:55:26;13.50;99.90
35523;DHT22;61478;50.820;4.330;2023-05-10T01:58:04;13.50;99.90
35523;DHT22;61478;50.820;4.330;2023-05-10T02:00:31;13.50;99.90
35523;DHT22;61478;50.820;4.330;2023-05-10T02:02:57;13.50;99.90
35523;DHT22;61478;50.820;4.330;2023-05-10T02:05:26;13.50;99.90
35523;DHT22;61478;50.820;4.330;2023-05-10T02:07:55;13.50;99.90
35523;DHT22;61478;50.820;4.330;2023-05-10T02:10:22;13.50;99.90
35523;DHT22;61478;50.820;4.330;2023-05-10T02:12:48;13.50;99.90
35523;DHT22;61478;50.820;4.330;2023-05-10T02:15:20;13.50;99.90
35523;DHT22;61478;50.820;4.330;2023-05-10T02:17:46;13.50;99.90
35523;DHT22;61478;50.820;4.330;2023-05-10T02:20:14;13.50;99.90
35523;DHT22;61478;50.820;4.330;2023-05-10T02:22:41;13.50;99.90
35523;DHT22;61478;50.820;4.330;2023-05-10T02:25:08;13.40;99.90
35523;DHT22;61478;50.820;4.330;2023-05-10T02:27:37;13.50;99.90
35523;DHT22;61478;50.820;4.330;2023-05-10T02:30:06;13.50;99.90
35523;DHT22;61478;50.820;4.330;2023-05-10T02:32:33;13.50;99.90
35523;DHT22;61478;50.820;4.330;2023-05-10T02:35:01;13.50;99.90
35523;DHT22;61478;50.820;4.330;2023-05-10T02:37:29;13.50;99.90
35523;DHT22;61478;50.820;4.330;2023-05-10T02:39:55;13.50;99.90
35523;DHT22;61478;50.820;4.330;2023-05-10T02:42:27;13.50;99.90
35523;DHT22;61478;50.820;4.330;2023-05-10T02:45:00;13.40;99.90
35523;DHT22;61478;50.820;4.330;2023-05-10T02:47:27;13.30;99.90
35523;DHT22;61478;50.820;4.330;2023-05-10T02:49:54;13.30;99.90
35523;DHT22;61478;50.820;4.330;2023-05-10T02:52:24;13.40;99.90
35523;DHT22;61478;50.820;4.330;2023-05-10T02:54:55;13.30;99.90
35523;DHT22;61478;50.820;4.330;2023-05-10T02:57:29;13.30;99.90
35523;DHT22;61478;50.820;4.330;2023-05-10T02:59:57;13.30;99.90
35523;DHT22;61478;50.820;4.330;2023-05-10T03:02:23;13.30;99.90
35523;DHT22;61478;50.820;4.330;2023-05-10T03:04:49;13.30;99.90
35523;DHT22;61478;50.820;4.330;2023-05-10T03:07:15;13.40;99.90
35523;DHT22;61478;50.820;4.330;2023-05-10T03:09:44;13.50;99.90
35523;DHT22;61478;50.820;4.330;2023-05-10T03:15:03;13.30;99.90
35523;DHT22;61478;50.820;4.330;2023-05-10T03:20:29;13.30;99.90
35523;DHT22;61478;50.820;4.330;2023-05-10T03:25:49;13.50;99.90
35523;DHT22;61478;50.820;4.330;2023-05-10T03:28:19;13.50;99.90
35523;DHT22;61478;50.820;4.330;2023-05-10T03:30:46;13.40;99.90
35523;DHT22;61478;50.820;4.330;2023-05-10T03:33:12;13.40;99.90
35523;DHT22;61478;50.820;4.330;2023-05-10T03:35:39;13.50;99.90
35523;DHT22;61478;50.820;4.330;2023-05-10T03:38:05;13.40;99.90
35523;DHT22;61478;50.820;4.330;2023-05-10T03:40:31;13.40;99.90
35523;DHT22;61478;50.820;4.330;2023-05-10T03:43:00;13.40;99.90
35523;DHT22;61478;50.820;4.330;2023-05-10T03:45:26;13.30;99.90
35523;DHT22;61478;50.820;4.330;2023-05-10T03:47:52;13.30;99.90
35523;DHT22;61478;50.820;4.330;2023-05-10T03:50:20;13.30;99.90
35523;DHT22;61478;50.820;4.330;2023-05-10T03:52:45;13.30;99.90
35523;DHT22;61478;50.820;4.330;2023-05-10T03:55:12;13.30;99.90
35523;DHT22;61478;50.820;4.330;2023-05-10T03:57:38;13.30;99.90
35523;DHT22;61478;50.820;4.330;2023-05-10T04:00:04;13.40;99.90
35523;DHT22;61478;50.820;4.330;2023-05-10T04:02:30;13.40;99.90
35523;DHT22;61478;50.820;4.330;2023-05-10T04:04:56;13.40;99.90
35523;DHT22;61478;50.820;4.330;2023-05-10T04:07:23;13.40;99.90
35523;DHT22;61478;50.820;4.330;2023-05-10T04:09:49;13.50;99.90
35523;DHT22;61478;50.820;4.330;2023-05-10T04:12:15;13.50;99.90
35523;DHT22;61478;50.820;4.330;2023-05-10T04:14:41;13.60;99.90
35523;DHT22;61478;50.820;4.330;2023-05-10T04:17:07;13.50;99.90
35523;DHT22;61478;50.820;4.330;2023-05-10T04:19:33;13.50;99.90
35523;DHT22;61478;50.820;4.330;2023-05-10T04:21:59;13.40;99.90
35523;DHT22;61478;50.820;4.330;2023-05-10T04:24:25;13.30;99.90
35523;DHT22;61478;50.820;4.330;2023-05-10T04:26:51;13.40;99.90
35523;DHT22;61478;50.820;4.330;2023-05-10T04:29:17;13.40;99.90
35523;DHT22;61478;50.820;4.330;2023-05-10T04:31:43;13.50;99.90
35523;DHT22;61478;50.820;4.330;2023-05-10T04:34:09;13.50;99.90
35523;DHT22;61478;50.820;4.330;2023-05-10T04:36:35;13.40;99.90
35523;DHT22;61478;50.820;4.330;2023-05-10T04:39:03;13.50;99.90
35523;DHT22;61478;50.820;4.330;2023-05-10T04:41:29;13.50;99.90
35523;DHT22;61478;50.820;4.330;2023-05-10T04:43:55;13.60;99.90
35523;DHT22;61478;50.820;4.330;2023-05-10T04:46:21;13.60;99.90
35523;DHT22;61478;50.820;4.330;2023-05-10T04:48:47;13.80;99.90
35523;DHT22;61478;50.820;4.330;2023-05-10T04:51:13;13.80;99.90
35523;DHT22;61478;50.820;4.330;2023-05-10T04:53:39;13.70;99.90
35523;DHT22;61478;50.820;4.330;2023-05-10T04:56:06;13.70;99.90
35523;DHT22;61478;50.820;4.330;2023-05-10T04:58:32;13.60;99.90
35523;DHT22;61478;50.820;4.330;2023-05-10T05:01:05;13.60;99.90
35523;DHT22;61478;50.820;4.330;2023-05-10T05:03:32;13.40;99.90
35523;DHT22;61478;50.820;4.330;2023-05-10T05:05:58;13.40;99.90
35523;DHT22;61478;50.820;4.330;2023-05-10T05:08:24;13.30;99.90
35523;DHT22;61478;50.820;4.330;2023-05-10T05:10:50;13.20;99.90
35523;DHT22;61478;50.820;4.330;2023-05-10T05:13:16;13.20;99.90
35523;DHT22;61478;50.820;4.330;2023-05-10T05:15:42;13.10;99.90
35523;DHT22;61478;50.820;4.330;2023-05-10T05:18:08;12.90;99.90
35523;DHT22;61478;50.820;4.330;2023-05-10T05:20:34;12.90;99.90
35523;DHT22;61478;50.820;4.330;2023-05-10T05:23:00;12.80;99.90
35523;DHT22;61478;50.820;4.330;2023-05-10T05:25:26;12.90;99.90
35523;DHT22;61478;50.820;4.330;2023-05-10T05:27:53;12.80;99.90
35523;DHT22;61478;50.820;4.330;2023-05-10T05:30:19;12.90;99.90
35523;DHT22;61478;50.820;4.330;2023-05-10T05:32:45;12.90;99.90
35523;DHT22;61478;50.820;4.330;2023-05-10T05:35:12;12.90;99.90
35523;DHT22;61478;50.820;4.330;2023-05-10T05:37:38;12.80;99.90
35523;DHT22;61478;50.820;4.330;2023-05-10T05:40:05;12.80;99.90
35523;DHT22;61478;50.820;4.330;2023-05-10T05:42:32;12.90;99.90
35523;DHT22;61478;50.820;4.330;2023-05-10T05:44:58;13.00;99.90
35523;DHT22;61478;50.820;4.330;2023-05-10T05:47:24;13.00;99.90
35523;DHT22;61478;50.820;4.330;2023-05-10T05:49:50;13.00;99.90
35523;DHT22;61478;50.820;4.330;2023-05-10T05:52:16;13.00;99.90
35523;DHT22;61478;50.820;4.330;2023-05-10T05:54:42;12.90;99.90
35523;DHT22;61478;50.820;4.330;2023-05-10T05:57:08;12.90;99.90
35523;DHT22;61478;50.820;4.330;2023-05-10T05:59:37;12.80;99.90
35523;DHT22;61478;50.820;4.330;2023-05-10T06:02:08;12.70;99.90
35523;DHT22;61478;50.820;4.330;2023-05-10T06:04:34;12.70;99.90
35523;DHT22;61478;50.820;4.330;2023-05-10T06:07:00;12.80;99.90
35523;DHT22;61478;50.820;4.330;2023-05-10T06:09:25;12.80;99.90
35523;DHT22;61478;50.820;4.330;2023-05-10T06:11:52;12.80;99.90
35523;DHT22;61478;50.820;4.330;2023-05-10T06:14:19;12.90;99.90
35523;DHT22;61478;50.820;4.330;2023-05-10T06:16:46;12.80;99.90
35523;DHT22;61478;50.820;4.330;2023-05-10T06:19:11;12.70;99.90
35523;DHT22;61478;50.820;4.330;2023-05-10T06:21:37;12.80;99.90
35523;DHT22;61478;50.820;4.330;2023-05-10T06:24:03;12.70;99.90
35523;DHT22;61478;50.820;4.330;2023-05-10T06:26:31;12.70;99.90
35523;DHT22;61478;50.820;4.330;2023-05-10T06:28:56;12.60;99.90
35523;DHT22;61478;50.820;4.330;2023-05-10T06:31:22;12.60;99.90
35523;DHT22;61478;50.820;4.330;2023-05-10T06:33:48;12.50;99.90
35523;DHT22;61478;50.820;4.330;2023-05-10T06:36:14;12.50;99.90
35523;DHT22;61478;50.820;4.330;2023-05-10T06:38:40;12.50;99.90
35523;DHT22;61478;50.820;4.330;2023-05-10T06:41:06;12.40;99.90
35523;DHT22;61478;50.820;4.330;2023-05-10T06:43:32;12.40;99.90
35523;DHT22;61478;50.820;4.330;2023-05-10T06:45:57;12.60;99.90
35523;DHT22;61478;50.820;4.330;2023-05-10T06:48:23;12.60;99.90
35523;DHT22;61478;50.820;4.330;2023-05-10T06:50:49;12.60;99.90
35523;DHT22;61478;50.820;4.330;2023-05-10T06:53:15;12.50;99.90
35523;DHT22;61478;50.820;4.330;2023-05-10T06:55:41;12.50;99.90
35523;DHT22;61478;50.820;4.330;2023-05-10T06:58:07;12.50;99.90
35523;DHT22;61478;50.820;4.330;2023-05-10T07:00:33;12.60;99.90
35523;DHT22;61478;50.820;4.330;2023-05-10T07:02:58;12.50;99.90
35523;DHT22;61478;50.820;4.330;2023-05-10T07:05:24;12.50;99.90
35523;DHT22;61478;50.820;4.330;2023-05-10T07:07:50;12.50;99.90
35523;DHT22;61478;50.820;4.330;2023-05-10T07:10:17;12.30;99.90
35523;DHT22;61478;50.820;4.330;2023-05-10T07:12:43;12.40;99.90
35523;DHT22;61478;50.820;4.330;2023-05-10T07:15:09;12.30;99.90
35523;DHT22;61478;50.820;4.330;2023-05-10T07:17:35;12.30;99.90
35523;DHT22;61478;50.820;4.330;2023-05-10T07:20:01;12.30;99.90
35523;DHT22;61478;50.820;4.330;2023-05-10T07:22:27;12.40;99.90
35523;DHT22;61478;50.820;4.330;2023-05-10T07:24:53;12.40;99.90
35523;DHT22;61478;50.820;4.330;2023-05-10T07:27:19;12.50;99.90
35523;DHT22;61478;50.820;4.330;2023-05-10T07:29:45;12.40;99.90
35523;DHT22;61478;50.820;4.330;2023-05-10T07:32:10;12.40;99.90
35523;DHT22;61478;50.820;4.330;2023-05-10T07:34:36;12.40;99.90
35523;DHT22;61478;50.820;4.330;2023-05-10T07:37:02;12.50;99.90
35523;DHT22;61478;50.820;4.330;2023-05-10T07:39:28;12.60;99.90
35523;DHT22;61478;50.820;4.330;2023-05-10T07:41:55;12.50;99.90
35523;DHT22;61478;50.820;4.330;2023-05-10T07:44:21;12.60;99.90
35523;DHT22;61478;50.820;4.330;2023-05-10T07:46:47;12.50;99.90
35523;DHT22;61478;50.820;4.330;2023-05-10T07:49:14;12.60;99.90
35523;DHT22;61478;50.820;4.330;2023-05-10T07:51:40;12.60;99.90
35523;DHT22;61478;50.820;4.330;2023-05-10T07:54:06;12.70;99.90
35523;DHT22;61478;50.820;4.330;2023-05-10T07:56:32;12.70;99.90
35523;DHT22;61478;50.820;4.330;2023-05-10T07:59:03;12.80;99.90
35523;DHT22;61478;50.820;4.330;2023-05-10T08:01:33;12.90;99.90
35523;DHT22;61478;50.820;4.330;2023-05-10T08:03:59;12.90;99.90
35523;DHT22;61478;50.820;4.330;2023-05-10T08:06:25;12.90;99.90
35523;DHT22;61478;50.820;4.330;2023-05-10T08:08:55;13.00;99.90
35523;DHT22;61478;50.820;4.330;2023-05-10T08:11:21;12.90;99.90
35523;DHT22;61478;50.820;4.330;2023-05-10T08:13:48;12.90;99.90
35523;DHT22;61478;50.820;4.330;2023-05-10T08:16:15;13.00;99.90
35523;DHT22;61478;50.820;4.330;2023-05-10T08:18:43;12.90;99.90
35523;DHT22;61478;50.820;4.330;2023-05-10T08:21:10;13.00;99.90
35523;DHT22;61478;50.820;4.330;2023-05-10T08:23:37;13.10;99.90
35523;DHT22;61478;50.820;4.330;2023-05-10T08:26:03;13.10;99.90
35523;DHT22;61478;50.820;4.330;2023-05-10T08:28:29;13.10;99.90
35523;DHT22;61478;50.820;4.330;2023-05-10T08:30:55;13.10;99.90
35523;DHT22;61478;50.820;4.330;2023-05-10T08:33:21;13.10;99.90
35523;DHT22;61478;50.820;4.330;2023-05-10T08:35:47;13.10;99.90
35523;DHT22;61478;50.820;4.330;2023-05-10T08:38:12;13.00;99.90
35523;DHT22;61478;50.820;4.330;2023-05-10T08:40:41;13.10;99.90
35523;DHT22;61478;50.820;4.330;2023-05-10T08:43:09;13.10;99.90
35523;DHT22;61478;50.820;4.330;2023-05-10T08:45:43;13.10;99.90
35523;DHT22;61478;50.820;4.330;2023-05-10T08:48:11;13.20;99.90
35523;DHT22;61478;50.820;4.330;2023-05-10T08:50:39;13.20;99.90
35523;DHT22;61478;50.820;4.330;2023-05-10T08:53:11;13.20;99.90
35523;DHT22;61478;50.820;4.330;2023-05-10T08:55:37;13.20;99.90
35523;DHT22;61478;50.820;4.330;2023-05-10T08:58:08;13.20;99.90
35523;DHT22;61478;50.820;4.330;2023-05-10T09:00:35;13.20;99.90
35523;DHT22;61478;50.820;4.330;2023-05-10T09:03:04;13.10;99.90
35523;DHT22;61478;50.820;4.330;2023-05-10T09:05:30;13.20;99.90
35523;DHT22;61478;50.820;4.330;2023-05-10T09:07:56;13.20;99.90
35523;DHT22;61478;50.820;4.330;2023-05-10T09:10:23;13.20;99.90
35523;DHT22;61478;50.820;4.330;2023-05-10T09:12:51;13.10;99.90
35523;DHT22;61478;50.820;4.330;2023-05-10T09:15:19;13.10;99.90
35523;DHT22;61478;50.820;4.330;2023-05-10T09:17:46;13.20;99.90
35523;DHT22;61478;50.820;4.330;2023-05-10T09:20:12;13.10;99.90
35523;DHT22;61478;50.820;4.330;2023-05-10T09:22:38;13.20;99.90
35523;DHT22;61478;50.820;4.330;2023-05-10T09:25:12;13.10;99.90
35523;DHT22;61478;50.820;4.330;2023-05-10T09:27:40;13.00;99.90
35523;DHT22;61478;50.820;4.330;2023-05-10T09:30:07;13.00;99.90
35523;DHT22;61478;50.820;4.330;2023-05-10T09:32:41;13.00;99.90
35523;DHT22;61478;50.820;4.330;2023-05-10T09:35:15;13.00;99.90
35523;DHT22;61478;50.820;4.330;2023-05-10T09:37:42;13.00;99.90
35523;DHT22;61478;50.820;4.330;2023-05-10T09:40:18;12.90;99.90
35523;DHT22;61478;50.820;4.330;2023-05-10T09:42:52;13.00;99.90
35523;DHT22;61478;50.820;4.330;2023-05-10T09:45:19;13.00;99.90
35523;DHT22;61478;50.820;4.330;2023-05-10T09:47:45;12.90;99.90
35523;DHT22;61478;50.820;4.330;2023-05-10T09:50:11;13.00;99.90
35523;DHT22;61478;50.820;4.330;2023-05-10T09:52:52;13.10;99.90
35523;DHT22;61478;50.820;4.330;2023-05-10T09:55:22;13.00;99.90
35523;DHT22;61478;50.820;4.330;2023-05-10T09:57:50;12.90;99.90
35523;DHT22;61478;50.820;4.330;2023-05-10T10:00:23;12.90;99.90
35523;DHT22;61478;50.820;4.330;2023-05-10T10:02:57;13.00;99.90
35523;DHT22;61478;50.820;4.330;2023-05-10T10:05:30;13.00;99.90
35523;DHT22;61478;50.820;4.330;2023-05-10T10:07:58;12.90;99.90
35523;DHT22;61478;50.820;4.330;2023-05-10T10:10:27;13.00;99.90
35523;DHT22;61478;50.820;4.330;2023-05-10T10:12:56;13.10;99.90
35523;DHT22;61478;50.820;4.330;2023-05-10T10:15:24;13.10;99.90
35523;DHT22;61478;50.820;4.330;2023-05-10T10:17:51;13.00;99.90
35523;DHT22;61478;50.820;4.330;2023-05-10T10:20:19;13.10;99.90
35523;DHT22;61478;50.820;4.330;2023-05-10T10:22:46;13.20;99.90
35523;DHT22;61478;50.820;4.330;2023-05-10T10:25:15;13.30;99.90
35523;DHT22;61478;50.820;4.330;2023-05-10T10:30:51;13.30;99.90
35523;DHT22;61478;50.820;4.330;2023-05-10T10:33:43;13.30;99.90
35523;DHT22;61478;50.820;4.330;2023-05-10T10:36:15;13.20;99.90
35523;DHT22;61478;50.820;4.330;2023-05-10T10:47:23;13.50;99.90
35523;DHT22;61478;50.820;4.330;2023-05-10T10:52:25;13.60;99.90
35523;DHT22;61478;50.820;4.330;2023-05-10T10:55:12;13.70;99.90
35523;DHT22;61478;50.820;4.330;2023-05-10T10:57:50;13.80;99.90
35523;DHT22;61478;50.820;4.330;2023-05-10T11:00:32;13.90;99.90
35523;DHT22;61478;50.820;4.330;2023-05-10T11:03:14;13.70;99.90
35523;DHT22;61478;50.820;4.330;2023-05-10T11:05:44;13.80;99.90
35523;DHT22;61478;50.820;4.330;2023-05-10T11:08:17;13.80;99.90
35523;DHT22;61478;50.820;4.330;2023-05-10T11:13:45;14.00;99.90
35523;DHT22;61478;50.820;4.330;2023-05-10T11:18:37;14.00;99.90
35523;DHT22;61478;50.820;4.330;2023-05-10T11:21:03;14.00;99.90
35523;DHT22;61478;50.820;4.330;2023-05-10T11:26:17;14.20;99.90
35523;DHT22;61478;50.820;4.330;2023-05-10T11:28:46;14.30;99.90
35523;DHT22;61478;50.820;4.330;2023-05-10T11:31:17;14.30;99.90
35523;DHT22;61478;50.820;4.330;2023-05-10T11:36:18;14.50;99.90
35523;DHT22;61478;50.820;4.330;2023-05-10T11:38:46;14.60;99.90
35523;DHT22;61478;50.820;4.330;2023-05-10T11:41:14;14.80;99.90
35523;DHT22;61478;50.820;4.330;2023-05-10T11:43:41;14.70;99.90
35523;DHT22;61478;50.820;4.330;2023-05-10T11:46:09;14.70;99.90
35523;DHT22;61478;50.820;4.330;2023-05-10T11:48:36;14.80;99.90
35523;DHT22;61478;50.820;4.330;2023-05-10T11:51:04;14.80;99.90
35523;DHT22;61478;50.820;4.330;2023-05-10T11:53:31;14.90;99.90
35523;DHT22;61478;50.820;4.330;2023-05-10T11:56:09;14.90;99.90
35523;DHT22;61478;50.820;4.330;2023-05-10T11:58:36;14.90;99.90
35523;DHT22;61478;50.820;4.330;2023-05-10T12:01:03;14.90;99.90
35523;DHT22;61478;50.820;4.330;2023-05-10T12:03:29;15.00;99.90
35523;DHT22;61478;50.820;4.330;2023-05-10T12:05:56;15.10;99.90
35523;DHT22;61478;50.820;4.330;2023-05-10T12:08:25;15.00;99.90
35523;DHT22;61478;50.820;4.330;2023-05-10T12:10:52;15.00;99.90
35523;DHT22;61478;50.820;4.330;2023-05-10T12:13:19;15.10;99.90
35523;DHT22;61478;50.820;4.330;2023-05-10T12:15:46;15.20;99.90
35523;DHT22;61478;50.820;4.330;2023-05-10T12:18:13;15.20;99.90
35523;DHT22;61478;50.820;4.330;2023-05-10T12:20:40;15.20;99.90
35523;DHT22;61478;50.820;4.330;2023-05-10T12:23:07;15.20;99.90
35523;DHT22;61478;50.820;4.330;2023-05-10T12:25:34;15.20;99.90
35523;DHT22;61478;50.820;4.330;2023-05-10T12:28:03;15.20;99.90
35523;DHT22;61478;50.820;4.330;2023-05-10T12:30:31;15.20;99.90
35523;DHT22;61478;50.820;4.330;2023-05-10T12:33:13;15.40;99.90
35523;DHT22;61478;50.820;4.330;2023-05-10T12:35:48;15.40;99.90
35523;DHT22;61478;50.820;4.330;2023-05-10T12:38:28;15.60;99.90
35523;DHT22;61478;50.820;4.330;2023-05-10T12:40:58;15.60;99.90
35523;DHT22;61478;50.820;4.330;2023-05-10T12:43:24;15.80;99.90
35523;DHT22;61478;50.820;4.330;2023-05-10T12:45:50;16.00;99.90
35523;DHT22;61478;50.820;4.330;2023-05-10T12:48:16;16.10;99.90
35523;DHT22;61478;50.820;4.330;2023-05-10T12:50:42;16.10;99.90
35523;DHT22;61478;50.820;4.330;2023-05-10T12:53:08;16.20;99.90
35523;DHT22;61478;50.820;4.330;2023-05-10T12:55:34;16.30;99.90
35523;DHT22;61478;50.820;4.330;2023-05-10T12:58:00;16.50;99.90
35523;DHT22;61478;50.820;4.330;2023-05-10T13:00:29;16.50;99.90
35523;DHT22;61478;50.820;4.330;2023-05-10T13:02:54;16.60;99.90
35523;DHT22;61478;50.820;4.330;2023-05-10T13:05:20;16.80;99.90
35523;DHT22;61478;50.820;4.330;2023-05-10T13:07:46;16.90;99.90
35523;DHT22;61478;50.820;4.330;2023-05-10T13:10:12;17.10;99.90
35523;DHT22;61478;50.820;4.330;2023-05-10T13:12:38;17.30;99.90
35523;DHT22;61478;50.820;4.330;2023-05-10T13:15:17;17.40;99.90
35523;DHT22;61478;50.820;4.330;2023-05-10T13:17:43;17.20;99.90
35523;DHT22;61478;50.820;4.330;2023-05-10T13:20:11;17.30;99.90
35523;DHT22;61478;50.820;4.330;2023-05-10T13:22:37;17.30;99.90
35523;DHT22;61478;50.820;4.330;2023-05-10T13:25:03;17.20;99.90
35523;DHT22;61478;50.820;4.330;2023-05-10T13:27:29;17.30;99.90
35523;DHT22;61478;50.820;4.330;2023-05-10T13:29:55;17.40;99.90
35523;DHT22;61478;50.820;4.330;2023-05-10T13:32:21;17.50;99.90
35523;DHT22;61478;50.820;4.330;2023-05-10T13:34:47;17.60;99.90
35523;DHT22;61478;50.820;4.330;2023-05-10T13:37:13;17.70;99.90
35523;DHT22;61478;50.820;4.330;2023-05-10T13:39:38;17.60;99.90
35523;DHT22;61478;50.820;4.330;2023-05-10T13:42:04;17.50;99.90
35523;DHT22;61478;50.820;4.330;2023-05-10T13:44:31;17.50;99.90
35523;DHT22;61478;50.820;4.330;2023-05-10T13:46:59;17.40;99.90
35523;DHT22;61478;50.820;4.330;2023-05-10T13:49:25;17.50;99.90
35523;DHT22;61478;50.820;4.330;2023-05-10T13:51:51;17.40;99.90
35523;DHT22;61478;50.820;4.330;2023-05-10T13:54:17;17.50;99.90
35523;DHT22;61478;50.820;4.330;2023-05-10T13:56:45;17.40;99.90
35523;DHT22;61478;50.820;4.330;2023-05-10T13:59:13;17.30;99.90
35523;DHT22;61478;50.820;4.330;2023-05-10T14:01:40;17.20;99.90
35523;DHT22;61478;50.820;4.330;2023-05-10T14:04:06;17.20;99.90
35523;DHT22;61478;50.820;4.330;2023-05-10T14:06:36;17.00;99.90
35523;DHT22;61478;50.820;4.330;2023-05-10T14:09:02;16.80;99.90
35523;DHT22;61478;50.820;4.330;2023-05-10T14:11:28;16.90;99.90
35523;DHT22;61478;50.820;4.330;2023-05-10T14:13:54;16.80;99.90
35523;DHT22;61478;50.820;4.330;2023-05-10T14:16:20;16.80;99.90
35523;DHT22;61478;50.820;4.330;2023-05-10T14:18:46;16.80;99.90
35523;DHT22;61478;50.820;4.330;2023-05-10T14:21:12;16.90;99.90
35523;DHT22;61478;50.820;4.330;2023-05-10T14:23:39;17.10;99.90
35523;DHT22;61478;50.820;4.330;2023-05-10T14:26:04;17.30;99.90
35523;DHT22;61478;50.820;4.330;2023-05-10T14:28:30;17.20;99.90
35523;DHT22;61478;50.820;4.330;2023-05-10T14:30:56;17.20;99.90
35523;DHT22;61478;50.820;4.330;2023-05-10T14:33:22;17.30;99.90
35523;DHT22;61478;50.820;4.330;2023-05-10T14:35:48;17.10;99.90
35523;DHT22;61478;50.820;4.330;2023-05-10T14:38:14;17.20;99.90
35523;DHT22;61478;50.820;4.330;2023-05-10T14:40:40;17.10;99.90
35523;DHT22;61478;50.820;4.330;2023-05-10T14:43:06;17.10;99.90
35523;DHT22;61478;50.820;4.330;2023-05-10T14:45:32;16.90;99.90
35523;DHT22;61478;50.820;4.330;2023-05-10T14:47:58;16.90;99.90
35523;DHT22;61478;50.820;4.330;2023-05-10T14:50:24;16.80;99.90
35523;DHT22;61478;50.820;4.330;2023-05-10T14:52:50;16.70;99.90
35523;DHT22;61478;50.820;4.330;2023-05-10T14:55:16;16.50;99.90
35523;DHT22;61478;50.820;4.330;2023-05-10T14:57:42;16.40;99.90
35523;DHT22;61478;50.820;4.330;2023-05-10T15:00:10;16.30;99.90
35523;DHT22;61478;50.820;4.330;2023-05-10T15:02:36;16.20;99.90
35523;DHT22;61478;50.820;4.330;2023-05-10T15:05:02;16.20;99.90
35523;DHT22;61478;50.820;4.330;2023-05-10T15:07:28;15.90;99.90
35523;DHT22;61478;50.820;4.330;2023-05-10T15:09:54;15.80;99.90
35523;DHT22;61478;50.820;4.330;2023-05-10T15:12:19;15.50;99.90
35523;DHT22;61478;50.820;4.330;2023-05-10T15:14:46;15.40;99.90
35523;DHT22;61478;50.820;4.330;2023-05-10T15:17:12;15.50;99.90
35523;DHT22;61478;50.820;4.330;2023-05-10T15:19:37;15.50;99.90
35523;DHT22;61478;50.820;4.330;2023-05-10T15:22:04;15.40;99.90
35523;DHT22;61478;50.820;4.330;2023-05-10T15:24:31;15.40;99.90
35523;DHT22;61478;50.820;4.330;2023-05-10T15:26:57;15.50;99.90
35523;DHT22;61478;50.820;4.330;2023-05-10T15:29:22;15.60;99.90
35523;DHT22;61478;50.820;4.330;2023-05-10T15:31:49;15.60;99.90
35523;DHT22;61478;50.820;4.330;2023-05-10T15:34:17;15.50;99.90
35523;DHT22;61478;50.820;4.330;2023-05-10T15:36:43;15.50;99.90
35523;DHT22;61478;50.820;4.330;2023-05-10T15:39:10;15.50;99.90
35523;DHT22;61478;50.820;4.330;2023-05-10T15:41:36;15.60;99.90
35523;DHT22;61478;50.820;4.330;2023-05-10T15:44:02;15.80;99.90
35523;DHT22;61478;50.820;4.330;2023-05-10T15:46:28;15.90;99.90
35523;DHT22;61478;50.820;4.330;2023-05-10T15:48:54;16.00;99.90
35523;DHT22;61478;50.820;4.330;2023-05-10T15:51:20;16.00;99.90
35523;DHT22;61478;50.820;4.330;2023-05-10T15:53:46;16.00;99.90
35523;DHT22;61478;50.820;4.330;2023-05-10T15:56:13;16.20;99.90
35523;DHT22;61478;50.820;4.330;2023-05-10T15:58:40;16.40;99.90
35523;DHT22;61478;50.820;4.330;2023-05-10T16:01:07;16.80;99.90
35523;DHT22;61478;50.820;4.330;2023-05-10T16:03:33;16.80;99.90
35523;DHT22;61478;50.820;4.330;2023-05-10T16:05:59;16.70;99.90
35523;DHT22;61478;50.820;4.330;2023-05-10T16:08:26;16.50;99.90
35523;DHT22;61478;50.820;4.330;2023-05-10T16:10:52;16.40;99.90
35523;DHT22;61478;50.820;4.330;2023-05-10T16:13:18;16.30;99.90
35523;DHT22;61478;50.820;4.330;2023-05-10T16:15:44;16.40;99.90
35523;DHT22;61478;50.820;4.330;2023-05-10T16:18:10;16.40;99.90
35523;DHT22;61478;50.820;4.330;2023-05-10T16:20:35;16.40;99.90